Cutler, Illinois
Current Conditions -  °F | °C
As of 5:55 AM on Monday 24 Nov 2014 (Local Time) from KSAR Reporting Station
Overcast Overcast  
Wind Chill: 29°   Ceiling: 1800
Heat Index: 38°   Visibility: 10mi
Dew Point: 33°   Wind: 17mph
Humidity: 83%   Direction: 270°W
Pressure: 29.48"   Gusts: 30mph
Location:  38.03°N, 89.57°W
Report Text: KSAR 241155Z AUTO 27015G26KT 10SM OVC018 04/01 A2948 RMK AO2 60011 70028 T00350008 10132 20035
Loading
Personal Weather Stations






























Interactive Weather Map New forecast layout! Learn more

10-Day Weather Forecast

Advertisements
Track Severe Weather on mobile